sensor_id;sensor_type;location;lat;lon;timestamp;temperature;humidity
43151;DHT22;28755;51.478;5.702;2022-09-28T00:02:15;8.60;99.90
43151;DHT22;28755;51.478;5.702;2022-09-28T00:04:41;8.60;99.90
43151;DHT22;28755;51.478;5.702;2022-09-28T00:07:07;8.70;99.90
43151;DHT22;28755;51.478;5.702;2022-09-28T00:09:32;8.60;99.90
43151;DHT22;28755;51.478;5.702;2022-09-28T00:11:58;8.60;99.90
43151;DHT22;28755;51.478;5.702;2022-09-28T00:14:24;8.60;99.90
43151;DHT22;28755;51.478;5.702;2022-09-28T00:16:50;8.60;99.90
43151;DHT22;28755;51.478;5.702;2022-09-28T00:19:16;8.60;99.90
43151;DHT22;28755;51.478;5.702;2022-09-28T00:21:45;8.60;99.90
43151;DHT22;28755;51.478;5.702;2022-09-28T00:24:13;8.60;99.90
43151;DHT22;28755;51.478;5.702;2022-09-28T00:31:47;8.60;99.90
43151;DHT22;28755;51.478;5.702;2022-09-28T00:34:13;8.60;99.90
43151;DHT22;28755;51.478;5.702;2022-09-28T00:36:43;8.60;99.90
43151;DHT22;28755;51.478;5.702;2022-09-28T00:39:10;8.60;99.90
43151;DHT22;28755;51.478;5.702;2022-09-28T00:41:36;8.60;99.90
43151;DHT22;28755;51.478;5.702;2022-09-28T00:44:34;8.60;99.90
43151;DHT22;28755;51.478;5.702;2022-09-28T00:49:43;8.50;99.90
43151;DHT22;28755;51.478;5.702;2022-09-28T00:52:20;8.60;99.90
43151;DHT22;28755;51.478;5.702;2022-09-28T00:54:48;8.70;99.90
43151;DHT22;28755;51.478;5.702;2022-09-28T00:57:15;8.60;99.90
43151;DHT22;28755;51.478;5.702;2022-09-28T00:59:42;8.50;99.90
43151;DHT22;28755;51.478;5.702;2022-09-28T01:02:08;8.50;99.90
43151;DHT22;28755;51.478;5.702;2022-09-28T01:04:36;8.50;99.90
43151;DHT22;28755;51.478;5.702;2022-09-28T01:07:02;8.60;99.90
43151;DHT22;28755;51.478;5.702;2022-09-28T01:09:28;8.70;99.90
43151;DHT22;28755;51.478;5.702;2022-09-28T01:11:54;8.60;99.90
43151;DHT22;28755;51.478;5.702;2022-09-28T01:14:20;8.60;99.90
43151;DHT22;28755;51.478;5.702;2022-09-28T01:17:02;8.60;99.90
43151;DHT22;28755;51.478;5.702;2022-09-28T01:20:02;8.60;99.90
43151;DHT22;28755;51.478;5.702;2022-09-28T01:22:45;8.60;99.90
43151;DHT22;28755;51.478;5.702;2022-09-28T01:25:26;8.60;99.90
43151;DHT22;28755;51.478;5.702;2022-09-28T01:28:02;8.50;99.90
43151;DHT22;28755;51.478;5.702;2022-09-28T01:30:30;8.60;99.90
43151;DHT22;28755;51.478;5.702;2022-09-28T01:33:09;8.60;99.90
43151;DHT22;28755;51.478;5.702;2022-09-28T01:35:49;8.60;99.90
43151;DHT22;28755;51.478;5.702;2022-09-28T01:38:27;8.70;99.90
43151;DHT22;28755;51.478;5.702;2022-09-28T01:40:56;8.70;99.90
43151;DHT22;28755;51.478;5.702;2022-09-28T01:43:25;8.70;99.90
43151;DHT22;28755;51.478;5.702;2022-09-28T01:46:13;8.70;99.90
43151;DHT22;28755;51.478;5.702;2022-09-28T01:48:53;8.70;99.90
43151;DHT22;28755;51.478;5.702;2022-09-28T01:51:33;8.70;99.90
43151;DHT22;28755;51.478;5.702;2022-09-28T01:54:13;8.80;99.90
43151;DHT22;28755;51.478;5.702;2022-09-28T01:57:01;8.70;99.90
43151;DHT22;28755;51.478;5.702;2022-09-28T01:59:32;8.70;99.90
43151;DHT22;28755;51.478;5.702;2022-09-28T02:02:17;8.80;99.90
43151;DHT22;28755;51.478;5.702;2022-09-28T02:04:52;8.70;99.90
43151;DHT22;28755;51.478;5.702;2022-09-28T02:07:24;8.70;99.90
43151;DHT22;28755;51.478;5.702;2022-09-28T02:09:54;8.70;99.90
43151;DHT22;28755;51.478;5.702;2022-09-28T02:12:38;8.70;99.90
43151;DHT22;28755;51.478;5.702;2022-09-28T02:15:25;8.70;99.90
43151;DHT22;28755;51.478;5.702;2022-09-28T02:17:53;8.70;99.90
43151;DHT22;28755;51.478;5.702;2022-09-28T02:20:20;8.80;99.90
43151;DHT22;28755;51.478;5.702;2022-09-28T02:22:48;8.80;99.90
43151;DHT22;28755;51.478;5.702;2022-09-28T02:28:00;8.80;99.90
43151;DHT22;28755;51.478;5.702;2022-09-28T02:30:30;8.80;99.90
43151;DHT22;28755;51.478;5.702;2022-09-28T02:33:19;8.80;99.90
43151;DHT22;28755;51.478;5.702;2022-09-28T02:35:46;8.80;99.90
43151;DHT22;28755;51.478;5.702;2022-09-28T02:38:13;8.80;99.90
43151;DHT22;28755;51.478;5.702;2022-09-28T02:40:39;8.90;99.90
43151;DHT22;28755;51.478;5.702;2022-09-28T02:43:22;8.90;99.90
43151;DHT22;28755;51.478;5.702;2022-09-28T02:46:00;8.90;99.90
43151;DHT22;28755;51.478;5.702;2022-09-28T02:55:06;8.90;99.90
43151;DHT22;28755;51.478;5.702;2022-09-28T02:57:41;8.90;99.90
43151;DHT22;28755;51.478;5.702;2022-09-28T03:00:18;8.90;99.90
43151;DHT22;28755;51.478;5.702;2022-09-28T03:06:25;8.80;99.90
43151;DHT22;28755;51.478;5.702;2022-09-28T03:09:18;8.80;99.90
43151;DHT22;28755;51.478;5.702;2022-09-28T03:11:49;8.80;99.90
43151;DHT22;28755;51.478;5.702;2022-09-28T03:14:16;8.70;99.90
43151;DHT22;28755;51.478;5.702;2022-09-28T03:16:43;8.80;99.90
43151;DHT22;28755;51.478;5.702;2022-09-28T03:19:13;8.70;99.90
43151;DHT22;28755;51.478;5.702;2022-09-28T03:21:40;8.70;99.90
43151;DHT22;28755;51.478;5.702;2022-09-28T03:24:06;8.70;99.90
43151;DHT22;28755;51.478;5.702;2022-09-28T03:26:33;8.60;99.90
43151;DHT22;28755;51.478;5.702;2022-09-28T03:28:58;8.70;99.90
43151;DHT22;28755;51.478;5.702;2022-09-28T03:31:24;8.60;99.90
43151;DHT22;28755;51.478;5.702;2022-09-28T03:33:50;8.70;99.90
43151;DHT22;28755;51.478;5.702;2022-09-28T03:36:16;8.60;99.90
43151;DHT22;28755;51.478;5.702;2022-09-28T03:38:41;8.60;99.90
43151;DHT22;28755;51.478;5.702;2022-09-28T03:41:07;8.60;99.90
43151;DHT22;28755;51.478;5.702;2022-09-28T03:43:34;8.60;99.90
43151;DHT22;28755;51.478;5.702;2022-09-28T03:46:00;8.50;99.90
43151;DHT22;28755;51.478;5.702;2022-09-28T03:48:31;8.50;99.90
43151;DHT22;28755;51.478;5.702;2022-09-28T03:51:00;8.60;99.90
43151;DHT22;28755;51.478;5.702;2022-09-28T03:53:26;8.60;99.90
43151;DHT22;28755;51.478;5.702;2022-09-28T03:55:54;8.60;99.90
43151;DHT22;28755;51.478;5.702;2022-09-28T03:58:20;8.70;99.90
43151;DHT22;28755;51.478;5.702;2022-09-28T04:00:46;8.60;99.90
43151;DHT22;28755;51.478;5.702;2022-09-28T04:03:12;8.60;99.90
43151;DHT22;28755;51.478;5.702;2022-09-28T04:05:37;8.60;99.90
43151;DHT22;28755;51.478;5.702;2022-09-28T04:08:03;8.60;99.90
43151;DHT22;28755;51.478;5.702;2022-09-28T04:10:28;8.60;99.90
43151;DHT22;28755;51.478;5.702;2022-09-28T04:12:57;8.60;99.90
43151;DHT22;28755;51.478;5.702;2022-09-28T04:15:24;8.60;99.90
43151;DHT22;28755;51.478;5.702;2022-09-28T04:17:50;8.50;99.90
43151;DHT22;28755;51.478;5.702;2022-09-28T04:20:16;8.50;99.90
43151;DHT22;28755;51.478;5.702;2022-09-28T04:22:42;8.50;99.90
43151;DHT22;28755;51.478;5.702;2022-09-28T04:25:08;8.50;99.90
43151;DHT22;28755;51.478;5.702;2022-09-28T04:27:33;8.60;99.90
43151;DHT22;28755;51.478;5.702;2022-09-28T04:30:17;8.60;99.90
43151;DHT22;28755;51.478;5.702;2022-09-28T04:32:45;8.60;99.90
43151;DHT22;28755;51.478;5.702;2022-09-28T04:35:12;8.60;99.90
43151;DHT22;28755;51.478;5.702;2022-09-28T04:37:37;8.60;99.90
43151;DHT22;28755;51.478;5.702;2022-09-28T04:40:03;8.50;99.90
43151;DHT22;28755;51.478;5.702;2022-09-28T04:42:29;8.50;99.90
43151;DHT22;28755;51.478;5.702;2022-09-28T04:44:54;8.50;99.90
43151;DHT22;28755;51.478;5.702;2022-09-28T04:47:44;8.50;99.90
43151;DHT22;28755;51.478;5.702;2022-09-28T04:50:10;8.50;99.90
43151;DHT22;28755;51.478;5.702;2022-09-28T04:52:36;8.50;99.90
43151;DHT22;28755;51.478;5.702;2022-09-28T04:55:03;8.50;99.90
43151;DHT22;28755;51.478;5.702;2022-09-28T04:57:28;8.40;99.90
43151;DHT22;28755;51.478;5.702;2022-09-28T04:59:54;8.40;99.90
43151;DHT22;28755;51.478;5.702;2022-09-28T05:02:20;8.40;99.90
43151;DHT22;28755;51.478;5.702;2022-09-28T05:04:45;8.40;99.90
43151;DHT22;28755;51.478;5.702;2022-09-28T05:07:11;8.40;99.90
43151;DHT22;28755;51.478;5.702;2022-09-28T05:09:36;8.50;99.90
43151;DHT22;28755;51.478;5.702;2022-09-28T05:12:02;8.40;99.90
43151;DHT22;28755;51.478;5.702;2022-09-28T05:14:28;8.40;99.90
43151;DHT22;28755;51.478;5.702;2022-09-28T05:16:53;8.30;99.90
43151;DHT22;28755;51.478;5.702;2022-09-28T05:19:19;8.30;99.90
43151;DHT22;28755;51.478;5.702;2022-09-28T05:21:45;8.20;99.90
43151;DHT22;28755;51.478;5.702;2022-09-28T05:24:11;8.20;99.90
43151;DHT22;28755;51.478;5.702;2022-09-28T05:26:37;8.20;99.90
43151;DHT22;28755;51.478;5.702;2022-09-28T05:29:03;8.10;99.90
43151;DHT22;28755;51.478;5.702;2022-09-28T05:31:28;8.10;99.90
43151;DHT22;28755;51.478;5.702;2022-09-28T05:33:54;8.10;99.90
43151;DHT22;28755;51.478;5.702;2022-09-28T05:36:20;8.10;99.90
43151;DHT22;28755;51.478;5.702;2022-09-28T05:38:46;8.20;99.90
43151;DHT22;28755;51.478;5.702;2022-09-28T05:41:12;8.10;99.90
43151;DHT22;28755;51.478;5.702;2022-09-28T05:43:37;8.10;99.90
43151;DHT22;28755;51.478;5.702;2022-09-28T05:46:06;8.10;99.90
43151;DHT22;28755;51.478;5.702;2022-09-28T05:48:32;8.10;99.90
43151;DHT22;28755;51.478;5.702;2022-09-28T05:50:57;8.20;99.90
43151;DHT22;28755;51.478;5.702;2022-09-28T05:53:24;8.10;99.90
43151;DHT22;28755;51.478;5.702;2022-09-28T05:55:49;8.20;99.90
43151;DHT22;28755;51.478;5.702;2022-09-28T05:58:15;8.20;99.90
43151;DHT22;28755;51.478;5.702;2022-09-28T06:00:41;8.20;99.90
43151;DHT22;28755;51.478;5.702;2022-09-28T06:03:11;8.40;99.90
43151;DHT22;28755;51.478;5.702;2022-09-28T06:05:38;8.40;99.90
43151;DHT22;28755;51.478;5.702;2022-09-28T06:08:05;8.40;99.90
43151;DHT22;28755;51.478;5.702;2022-09-28T06:10:32;8.50;99.90
43151;DHT22;28755;51.478;5.702;2022-09-28T06:12:58;8.50;99.90
43151;DHT22;28755;51.478;5.702;2022-09-28T06:15:26;8.50;99.90
43151;DHT22;28755;51.478;5.702;2022-09-28T06:18:00;8.60;99.90
43151;DHT22;28755;51.478;5.702;2022-09-28T06:20:28;8.70;99.90
43151;DHT22;28755;51.478;5.702;2022-09-28T06:22:54;8.90;99.90
43151;DHT22;28755;51.478;5.702;2022-09-28T06:25:20;8.80;99.90
43151;DHT22;28755;51.478;5.702;2022-09-28T06:28:01;8.80;99.90
43151;DHT22;28755;51.478;5.702;2022-09-28T06:30:28;8.90;99.90
43151;DHT22;28755;51.478;5.702;2022-09-28T06:32:56;9.00;99.90
43151;DHT22;28755;51.478;5.702;2022-09-28T06:35:24;9.10;99.90
43151;DHT22;28755;51.478;5.702;2022-09-28T06:37:50;9.10;99.90
43151;DHT22;28755;51.478;5.702;2022-09-28T06:40:17;9.20;99.90
43151;DHT22;28755;51.478;5.702;2022-09-28T06:42:42;9.10;99.90
43151;DHT22;28755;51.478;5.702;2022-09-28T06:45:08;9.00;99.90
43151;DHT22;28755;51.478;5.702;2022-09-28T06:47:35;9.00;99.90
43151;DHT22;28755;51.478;5.702;2022-09-28T06:50:03;10.00;99.90
43151;DHT22;28755;51.478;5.702;2022-09-28T06:52:28;11.20;99.90
43151;DHT22;28755;51.478;5.702;2022-09-28T06:54:54;11.60;99.90
43151;DHT22;28755;51.478;5.702;2022-09-28T06:57:19;11.10;99.90
43151;DHT22;28755;51.478;5.702;2022-09-28T06:59:45;10.70;99.90
43151;DHT22;28755;51.478;5.702;2022-09-28T07:02:11;10.40;99.90
43151;DHT22;28755;51.478;5.702;2022-09-28T07:04:41;10.20;99.90
43151;DHT22;28755;51.478;5.702;2022-09-28T07:07:09;10.00;99.90
43151;DHT22;28755;51.478;5.702;2022-09-28T07:09:35;9.90;99.90
43151;DHT22;28755;51.478;5.702;2022-09-28T07:12:02;10.00;99.90
43151;DHT22;28755;51.478;5.702;2022-09-28T07:14:31;10.10;99.90
43151;DHT22;28755;51.478;5.702;2022-09-28T07:16:57;10.10;99.90
43151;DHT22;28755;51.478;5.702;2022-09-28T07:19:22;10.10;99.90
43151;DHT22;28755;51.478;5.702;2022-09-28T07:21:50;10.00;99.90
43151;DHT22;28755;51.478;5.702;2022-09-28T07:24:16;10.00;99.90
43151;DHT22;28755;51.478;5.702;2022-09-28T07:26:41;9.90;99.90
43151;DHT22;28755;51.478;5.702;2022-09-28T07:29:10;9.90;99.90
43151;DHT22;28755;51.478;5.702;2022-09-28T07:31:36;9.90;99.90
43151;DHT22;28755;51.478;5.702;2022-09-28T07:34:02;9.90;99.90
43151;DHT22;28755;51.478;5.702;2022-09-28T07:36:28;10.00;99.90
43151;DHT22;28755;51.478;5.702;2022-09-28T07:38:54;10.10;99.90
43151;DHT22;28755;51.478;5.702;2022-09-28T07:41:20;10.10;99.90
43151;DHT22;28755;51.478;5.702;2022-09-28T07:43:58;10.20;99.90
43151;DHT22;28755;51.478;5.702;2022-09-28T07:46:30;10.70;99.90
43151;DHT22;28755;51.478;5.702;2022-09-28T07:48:56;11.10;99.90
43151;DHT22;28755;51.478;5.702;2022-09-28T07:51:21;11.30;99.90
43151;DHT22;28755;51.478;5.702;2022-09-28T07:53:47;11.20;99.90
43151;DHT22;28755;51.478;5.702;2022-09-28T07:56:12;11.10;99.90
43151;DHT22;28755;51.478;5.702;2022-09-28T07:58:41;11.00;99.90
43151;DHT22;28755;51.478;5.702;2022-09-28T08:01:09;11.00;99.90
43151;DHT22;28755;51.478;5.702;2022-09-28T08:03:36;10.90;99.90
43151;DHT22;28755;51.478;5.702;2022-09-28T08:06:05;10.80;99.90
43151;DHT22;28755;51.478;5.702;2022-09-28T08:08:34;10.90;99.90
43151;DHT22;28755;51.478;5.702;2022-09-28T08:11:01;11.00;99.90
43151;DHT22;28755;51.478;5.702;2022-09-28T08:13:27;11.10;99.90
43151;DHT22;28755;51.478;5.702;2022-09-28T08:15:53;11.30;99.90
43151;DHT22;28755;51.478;5.702;2022-09-28T08:18:19;11.50;99.90
43151;DHT22;28755;51.478;5.702;2022-09-28T08:20:45;12.00;99.90
43151;DHT22;28755;51.478;5.702;2022-09-28T08:23:30;12.20;99.90
43151;DHT22;28755;51.478;5.702;2022-09-28T08:25:55;12.30;99.90
43151;DHT22;28755;51.478;5.702;2022-09-28T08:28:22;13.00;99.90
43151;DHT22;28755;51.478;5.702;2022-09-28T08:30:48;12.90;99.90
43151;DHT22;28755;51.478;5.702;2022-09-28T08:33:15;12.80;99.90
43151;DHT22;28755;51.478;5.702;2022-09-28T08:35:53;12.80;99.90
43151;DHT22;28755;51.478;5.702;2022-09-28T08:38:19;12.60;99.90
43151;DHT22;28755;51.478;5.702;2022-09-28T08:41:18;12.40;99.90
43151;DHT22;28755;51.478;5.702;2022-09-28T08:44:02;12.50;99.90
43151;DHT22;28755;51.478;5.702;2022-09-28T08:46:35;12.70;99.90
43151;DHT22;28755;51.478;5.702;2022-09-28T08:49:09;13.10;99.90
43151;DHT22;28755;51.478;5.702;2022-09-28T08:51:44;14.10;99.90
43151;DHT22;28755;51.478;5.702;2022-09-28T08:54:36;15.80;99.90
43151;DHT22;28755;51.478;5.702;2022-09-28T08:57:19;17.90;99.90
43151;DHT22;28755;51.478;5.702;2022-09-28T08:59:49;18.80;99.90
43151;DHT22;28755;51.478;5.702;2022-09-28T09:02:36;19.70;99.90
43151;DHT22;28755;51.478;5.702;2022-09-28T09:05:05;20.50;99.90
43151;DHT22;28755;51.478;5.702;2022-09-28T09:07:50;21.80;99.90
43151;DHT22;28755;51.478;5.702;2022-09-28T09:18:36;20.90;99.90
43151;DHT22;28755;51.478;5.702;2022-09-28T09:21:12;20.30;99.90
43151;DHT22;28755;51.478;5.702;2022-09-28T09:26:18;19.80;99.90
43151;DHT22;28755;51.478;5.702;2022-09-28T09:31:46;19.10;99.90
43151;DHT22;28755;51.478;5.702;2022-09-28T09:40:16;20.30;99.90
43151;DHT22;28755;51.478;5.702;2022-09-28T09:48:25;22.20;99.90
43151;DHT22;28755;51.478;5.702;2022-09-28T09:50:59;21.60;99.90
43151;DHT22;28755;51.478;5.702;2022-09-28T09:53:36;20.10;99.90
43151;DHT22;28755;51.478;5.702;2022-09-28T09:56:18;20.30;99.90
43151;DHT22;28755;51.478;5.702;2022-09-28T09:58:52;21.70;99.90
43151;DHT22;28755;51.478;5.702;2022-09-28T10:01:26;22.80;99.90
43151;DHT22;28755;51.478;5.702;2022-09-28T10:03:55;21.70;99.90
43151;DHT22;28755;51.478;5.702;2022-09-28T10:06:32;20.90;99.90
43151;DHT22;28755;51.478;5.702;2022-09-28T10:09:07;20.30;99.90
43151;DHT22;28755;51.478;5.702;2022-09-28T10:11:38;19.20;99.90
43151;DHT22;28755;51.478;5.702;2022-09-28T10:14:19;18.30;99.90
43151;DHT22;28755;51.478;5.702;2022-09-28T10:16:46;17.60;99.90
43151;DHT22;28755;51.478;5.702;2022-09-28T10:19:14;17.70;99.90
43151;DHT22;28755;51.478;5.702;2022-09-28T10:21:40;19.60;99.90
43151;DHT22;28755;51.478;5.702;2022-09-28T10:24:16;19.20;99.90
43151;DHT22;28755;51.478;5.702;2022-09-28T10:26:47;18.20;99.90
43151;DHT22;28755;51.478;5.702;2022-09-28T10:29:16;18.20;99.90
43151;DHT22;28755;51.478;5.702;2022-09-28T10:31:46;17.50;99.90
43151;DHT22;28755;51.478;5.702;2022-09-28T10:34:17;16.40;99.90
43151;DHT22;28755;51.478;5.702;2022-09-28T10:36:45;15.40;99.90
43151;DHT22;28755;51.478;5.702;2022-09-28T10:39:34;15.70;99.90
43151;DHT22;28755;51.478;5.702;2022-09-28T10:42:06;19.40;99.90
43151;DHT22;28755;51.478;5.702;2022-09-28T10:45:02;19.00;99.90
43151;DHT22;28755;51.478;5.702;2022-09-28T10:47:30;17.20;99.90
43151;DHT22;28755;51.478;5.702;2022-09-28T10:49:59;16.00;99.90
43151;DHT22;28755;51.478;5.702;2022-09-28T10:52:40;15.50;99.90
43151;DHT22;28755;51.478;5.702;2022-09-28T10:55:29;15.10;99.90
43151;DHT22;28755;51.478;5.702;2022-09-28T10:57:57;14.70;99.90
43151;DHT22;28755;51.478;5.702;2022-09-28T11:02:58;17.50;99.90
43151;DHT22;28755;51.478;5.702;2022-09-28T11:05:25;18.00;99.90
43151;DHT22;28755;51.478;5.702;2022-09-28T11:07:53;17.50;99.90
43151;DHT22;28755;51.478;5.702;2022-09-28T11:10:28;16.60;99.90
43151;DHT22;28755;51.478;5.702;2022-09-28T11:12:55;16.00;99.90
43151;DHT22;28755;51.478;5.702;2022-09-28T11:15:29;15.70;99.90
43151;DHT22;28755;51.478;5.702;2022-09-28T11:17:55;15.70;99.90
43151;DHT22;28755;51.478;5.702;2022-09-28T11:20:32;18.10;99.90
43151;DHT22;28755;51.478;5.702;2022-09-28T11:23:19;19.80;99.90
43151;DHT22;28755;51.478;5.702;2022-09-28T11:26:17;19.10;99.90
43151;DHT22;28755;51.478;5.702;2022-09-28T11:28:50;17.60;99.90
43151;DHT22;28755;51.478;5.702;2022-09-28T11:31:16;16.60;99.90
43151;DHT22;28755;51.478;5.702;2022-09-28T11:33:48;16.00;99.90
43151;DHT22;28755;51.478;5.702;2022-09-28T11:44:35;20.10;99.90
43151;DHT22;28755;51.478;5.702;2022-09-28T11:49:59;20.10;99.90
43151;DHT22;28755;51.478;5.702;2022-09-28T11:58:14;23.80;99.90
43151;DHT22;28755;51.478;5.702;2022-09-28T12:00:47;24.30;99.90
43151;DHT22;28755;51.478;5.702;2022-09-28T12:03:19;23.20;99.90
43151;DHT22;28755;51.478;5.702;2022-09-28T12:05:50;21.50;99.90
43151;DHT22;28755;51.478;5.702;2022-09-28T12:08:26;21.40;99.90
43151;DHT22;28755;51.478;5.702;2022-09-28T12:11:06;21.00;99.90
43151;DHT22;28755;51.478;5.702;2022-09-28T12:13:37;19.80;99.90
43151;DHT22;28755;51.478;5.702;2022-09-28T12:16:08;18.50;99.90
43151;DHT22;28755;51.478;5.702;2022-09-28T12:18:55;17.30;99.90
43151;DHT22;28755;51.478;5.702;2022-09-28T12:21:37;16.20;99.90
43151;DHT22;28755;51.478;5.702;2022-09-28T12:24:13;15.40;99.90
43151;DHT22;28755;51.478;5.702;2022-09-28T12:27:01;14.50;99.90
43151;DHT22;28755;51.478;5.702;2022-09-28T12:29:31;14.00;99.90
43151;DHT22;28755;51.478;5.702;2022-09-28T12:32:17;13.70;99.90
43151;DHT22;28755;51.478;5.702;2022-09-28T12:34:48;13.50;99.90
43151;DHT22;28755;51.478;5.702;2022-09-28T12:40:31;13.70;99.90
43151;DHT22;28755;51.478;5.702;2022-09-28T12:48:53;16.60;99.90
43151;DHT22;28755;51.478;5.702;2022-09-28T12:54:00;18.40;99.90
43151;DHT22;28755;51.478;5.702;2022-09-28T12:56:51;19.40;99.90
43151;DHT22;28755;51.478;5.702;2022-09-28T12:59:28;20.20;99.90
43151;DHT22;28755;51.478;5.702;2022-09-28T13:02:18;19.40;99.90
43151;DHT22;28755;51.478;5.702;2022-09-28T13:15:31;17.00;99.90
43151;DHT22;28755;51.478;5.702;2022-09-28T13:18:07;16.70;99.90
43151;DHT22;28755;51.478;5.702;2022-09-28T13:23:24;16.60;99.90
43151;DHT22;28755;51.478;5.702;2022-09-28T13:26:01;16.70;99.90
43151;DHT22;28755;51.478;5.702;2022-09-28T13:28:33;16.60;99.90
43151;DHT22;28755;51.478;5.702;2022-09-28T13:31:01;16.20;99.90
43151;DHT22;28755;51.478;5.702;2022-09-28T13:33:38;15.30;99.90
43151;DHT22;28755;51.478;5.702;2022-09-28T13:38:50;14.40;99.90
43151;DHT22;28755;51.478;5.702;2022-09-28T13:41:22;14.40;99.90
43151;DHT22;28755;51.478;5.702;2022-09-28T13:46:48;14.10;99.90
43151;DHT22;28755;51.478;5.702;2022-09-28T13:49:35;14.10;99.90
43151;DHT22;28755;51.478;5.702;2022-09-28T13:52:22;14.10;99.90
43151;DHT22;28755;51.478;5.702;2022-09-28T13:55:20;14.30;99.90
43151;DHT22;28755;51.478;5.702;2022-09-28T14:00:34;14.20;99.90
43151;DHT22;28755;51.478;5.702;2022-09-28T14:03:11;14.20;99.90
43151;DHT22;28755;51.478;5.702;2022-09-28T14:06:04;13.90;99.90
43151;DHT22;28755;51.478;5.702;2022-09-28T14:16:57;13.60;99.90
43151;DHT22;28755;51.478;5.702;2022-09-28T14:19:28;13.90;99.90
43151;DHT22;28755;51.478;5.702;2022-09-28T14:29:40;13.80;99.90
43151;DHT22;28755;51.478;5.702;2022-09-28T14:34:37;13.80;99.90
43151;DHT22;28755;51.478;5.702;2022-09-28T14:37:19;13.90;99.90
43151;DHT22;28755;51.478;5.702;2022-09-28T14:49:04;13.80;99.90
43151;DHT22;28755;51.478;5.702;2022-09-28T14:59:23;13.60;99.90
43151;DHT22;28755;51.478;5.702;2022-09-28T15:04:40;13.50;99.90
43151;DHT22;28755;51.478;5.702;2022-09-28T15:07:23;13.80;99.90
43151;DHT22;28755;51.478;5.702;2022-09-28T15:09:54;13.90;99.90
43151;DHT22;28755;51.478;5.702;2022-09-28T15:12:24;14.00;99.90
43151;DHT22;28755;51.478;5.702;2022-09-28T15:14:56;13.90;99.90
43151;DHT22;28755;51.478;5.702;2022-09-28T15:17:25;13.90;99.90
43151;DHT22;28755;51.478;5.702;2022-09-28T15:22:50;14.00;99.90
43151;DHT22;28755;51.478;5.702;2022-09-28T15:25:20;14.10;99.90
43151;DHT22;28755;51.478;5.702;2022-09-28T15:27:57;14.20;99.90
43151;DHT22;28755;51.478;5.702;2022-09-28T15:30:30;14.40;99.90
43151;DHT22;28755;51.478;5.702;2022-09-28T15:32:58;14.60;99.90
43151;DHT22;28755;51.478;5.702;2022-09-28T15:35:49;14.70;99.90
43151;DHT22;28755;51.478;5.702;2022-09-28T15:38:19;14.80;99.90
43151;DHT22;28755;51.478;5.702;2022-09-28T15:40:45;14.90;99.90
43151;DHT22;28755;51.478;5.702;2022-09-28T15:43:32;14.90;99.90
43151;DHT22;28755;51.478;5.702;2022-09-28T15:46:11;14.80;99.90
43151;DHT22;28755;51.478;5.702;2022-09-28T15:48:55;14.70;99.90
43151;DHT22;28755;51.478;5.702;2022-09-28T15:51:23;14.60;99.90
43151;DHT22;28755;51.478;5.702;2022-09-28T15:54:13;14.30;99.90
43151;DHT22;28755;51.478;5.702;2022-09-28T15:57:00;14.20;99.90
43151;DHT22;28755;51.478;5.702;2022-09-28T15:59:33;14.10;99.90
43151;DHT22;28755;51.478;5.702;2022-09-28T16:02:19;14.10;99.90
43151;DHT22;28755;51.478;5.702;2022-09-28T16:07:39;14.00;99.90
43151;DHT22;28755;51.478;5.702;2022-09-28T16:12:53;14.20;99.90
43151;DHT22;28755;51.478;5.702;2022-09-28T16:15:24;14.20;99.90
43151;DHT22;28755;51.478;5.702;2022-09-28T16:22:52;14.00;99.90
43151;DHT22;28755;51.478;5.702;2022-09-28T16:25:20;14.00;99.90
43151;DHT22;28755;51.478;5.702;2022-09-28T16:27:50;14.00;99.90
43151;DHT22;28755;51.478;5.702;2022-09-28T16:30:25;13.90;99.90
43151;DHT22;28755;51.478;5.702;2022-09-28T16:32:56;14.10;99.90
43151;DHT22;28755;51.478;5.702;2022-09-28T16:38:11;14.00;99.90
43151;DHT22;28755;51.478;5.702;2022-09-28T16:40:40;13.90;99.90
43151;DHT22;28755;51.478;5.702;2022-09-28T16:43:07;13.70;99.90
43151;DHT22;28755;51.478;5.702;2022-09-28T16:45:37;13.70;99.90
43151;DHT22;28755;51.478;5.702;2022-09-28T16:48:03;13.60;99.90
43151;DHT22;28755;51.478;5.702;2022-09-28T16:50:31;13.60;99.90
43151;DHT22;28755;51.478;5.702;2022-09-28T16:53:14;13.60;99.90
43151;DHT22;28755;51.478;5.702;2022-09-28T16:56:00;13.50;99.90
43151;DHT22;28755;51.478;5.702;2022-09-28T16:58:27;13.40;99.90
43151;DHT22;28755;51.478;5.702;2022-09-28T17:00:53;13.40;99.90
43151;DHT22;28755;51.478;5.702;2022-09-28T17:03:20;13.40;99.90
43151;DHT22;28755;51.478;5.702;2022-09-28T17:05:48;13.30;99.90
43151;DHT22;28755;51.478;5.702;2022-09-28T17:08:15;13.30;99.90
43151;DHT22;28755;51.478;5.702;2022-09-28T17:10:55;13.30;99.90
43151;DHT22;28755;51.478;5.702;2022-09-28T17:13:25;13.30;99.90
43151;DHT22;28755;51.478;5.702;2022-09-28T17:15:56;13.30;99.90
43151;DHT22;28755;51.478;5.702;2022-09-28T17:18:22;13.20;99.90
43151;DHT22;28755;51.478;5.702;2022-09-28T17:20:50;13.10;99.90
43151;DHT22;28755;51.478;5.702;2022-09-28T17:23:16;13.00;99.90
43151;DHT22;28755;51.478;5.702;2022-09-28T17:25:43;12.90;99.90
43151;DHT22;28755;51.478;5.702;2022-09-28T17:28:23;12.90;99.90
43151;DHT22;28755;51.478;5.702;2022-09-28T17:30:50;12.90;99.90
43151;DHT22;28755;51.478;5.702;2022-09-28T17:33:15;12.80;99.90
43151;DHT22;28755;51.478;5.702;2022-09-28T17:35:42;12.70;99.90
43151;DHT22;28755;51.478;5.702;2022-09-28T17:38:12;12.70;99.90
43151;DHT22;28755;51.478;5.702;2022-09-28T17:40:39;12.70;99.90
43151;DHT22;28755;51.478;5.702;2022-09-28T17:43:05;12.70;99.90
43151;DHT22;28755;51.478;5.702;2022-09-28T17:45:32;12.70;99.90
43151;DHT22;28755;51.478;5.702;2022-09-28T17:47:58;12.60;99.90
43151;DHT22;28755;51.478;5.702;2022-09-28T17:50:27;12.40;99.90
43151;DHT22;28755;51.478;5.702;2022-09-28T17:52:54;12.30;99.90
43151;DHT22;28755;51.478;5.702;2022-09-28T17:55:24;12.20;99.90
43151;DHT22;28755;51.478;5.702;2022-09-28T17:57:51;12.10;99.90
43151;DHT22;28755;51.478;5.702;2022-09-28T18:00:17;12.00;99.90
43151;DHT22;28755;51.478;5.702;2022-09-28T18:02:43;11.90;99.90
43151;DHT22;28755;51.478;5.702;2022-09-28T18:05:10;11.90;99.90
43151;DHT22;28755;51.478;5.702;2022-09-28T18:07:37;11.80;99.90
43151;DHT22;28755;51.478;5.702;2022-09-28T18:10:04;11.70;99.90
43151;DHT22;28755;51.478;5.702;2022-09-28T18:12:31;11.70;99.90
43151;DHT22;28755;51.478;5.702;2022-09-28T18:14:56;11.60;99.90
43151;DHT22;28755;51.478;5.702;2022-09-28T18:17:22;11.60;99.90
43151;DHT22;28755;51.478;5.702;2022-09-28T18:19:47;11.50;99.90
43151;DHT22;28755;51.478;5.702;2022-09-28T18:22:13;11.40;99.90
43151;DHT22;28755;51.478;5.702;2022-09-28T18:24:38;11.30;99.90
43151;DHT22;28755;51.478;5.702;2022-09-28T18:27:04;11.20;99.90
43151;DHT22;28755;51.478;5.702;2022-09-28T18:29:30;11.20;99.90
43151;DHT22;28755;51.478;5.702;2022-09-28T18:31:55;11.20;99.90
43151;DHT22;28755;51.478;5.702;2022-09-28T18:34:21;11.10;99.90
43151;DHT22;28755;51.478;5.702;2022-09-28T18:36:46;11.00;99.90